sensor_id;sensor_type;location;lat;lon;timestamp;P1;durP1;ratioP1;P2;durP2;ratioP2
10269;SDS011;5180;50.832;5.390;2022-11-04T00:01:55;6.28;;;5.55;;
10269;SDS011;5180;50.832;5.390;2022-11-04T00:04:22;7.18;;;6.47;;
10269;SDS011;5180;50.832;5.390;2022-11-04T00:06:49;9.35;;;5.85;;
10269;SDS011;5180;50.832;5.390;2022-11-04T00:09:17;7.45;;;6.25;;
10269;SDS011;5180;50.832;5.390;2022-11-04T00:11:45;9.00;;;8.15;;
10269;SDS011;5180;50.832;5.390;2022-11-04T00:14:29;6.70;;;6.07;;
10269;SDS011;5180;50.832;5.390;2022-11-04T00:16:56;9.27;;;8.38;;
10269;SDS011;5180;50.832;5.390;2022-11-04T00:19:41;10.60;;;7.05;;
10269;SDS011;5180;50.832;5.390;2022-11-04T00:22:25;8.52;;;7.72;;
10269;SDS011;5180;50.832;5.390;2022-11-04T00:25:09;9.05;;;8.35;;
10269;SDS011;5180;50.832;5.390;2022-11-04T00:28:15;11.07;;;7.38;;
10269;SDS011;5180;50.832;5.390;2022-11-04T00:30:59;11.52;;;7.47;;
10269;SDS011;5180;50.832;5.390;2022-11-04T00:33:47;9.30;;;7.07;;
10269;SDS011;5180;50.832;5.390;2022-11-04T00:36:14;8.73;;;7.00;;
10269;SDS011;5180;50.832;5.390;2022-11-04T00:38:40;9.98;;;8.38;;
10269;SDS011;5180;50.832;5.390;2022-11-04T00:41:07;10.30;;;8.10;;
10269;SDS011;5180;50.832;5.390;2022-11-04T00:43:59;9.13;;;6.97;;
10269;SDS011;5180;50.832;5.390;2022-11-04T00:46:27;8.63;;;7.82;;
10269;SDS011;5180;50.832;5.390;2022-11-04T00:48:54;11.63;;;6.70;;
10269;SDS011;5180;50.832;5.390;2022-11-04T00:51:20;6.97;;;6.40;;
10269;SDS011;5180;50.832;5.390;2022-11-04T00:53:46;5.75;;;5.18;;
10269;SDS011;5180;50.832;5.390;2022-11-04T00:56:12;10.00;;;5.75;;
10269;SDS011;5180;50.832;5.390;2022-11-04T00:58:38;9.63;;;8.27;;
10269;SDS011;5180;50.832;5.390;2022-11-04T01:01:10;9.50;;;8.50;;
10269;SDS011;5180;50.832;5.390;2022-11-04T01:03:41;10.18;;;8.88;;
10269;SDS011;5180;50.832;5.390;2022-11-04T01:06:07;9.93;;;7.10;;
10269;SDS011;5180;50.832;5.390;2022-11-04T01:08:33;13.65;;;7.78;;
10269;SDS011;5180;50.832;5.390;2022-11-04T01:11:02;9.18;;;6.63;;
10269;SDS011;5180;50.832;5.390;2022-11-04T01:13:29;13.98;;;7.03;;
10269;SDS011;5180;50.832;5.390;2022-11-04T01:15:58;9.68;;;6.20;;
10269;SDS011;5180;50.832;5.390;2022-11-04T01:18:25;8.13;;;6.15;;
10269;SDS011;5180;50.832;5.390;2022-11-04T01:20:50;10.68;;;7.25;;
10269;SDS011;5180;50.832;5.390;2022-11-04T01:23:16;9.60;;;8.57;;
10269;SDS011;5180;50.832;5.390;2022-11-04T01:25:42;12.82;;;9.20;;
10269;SDS011;5180;50.832;5.390;2022-11-04T01:28:07;9.70;;;8.63;;
10269;SDS011;5180;50.832;5.390;2022-11-04T01:30:33;10.68;;;9.25;;
10269;SDS011;5180;50.832;5.390;2022-11-04T01:33:01;12.02;;;9.70;;
10269;SDS011;5180;50.832;5.390;2022-11-04T01:35:27;11.65;;;6.50;;
10269;SDS011;5180;50.832;5.390;2022-11-04T01:37:53;6.72;;;6.07;;
10269;SDS011;5180;50.832;5.390;2022-11-04T01:40:18;9.23;;;5.90;;
10269;SDS011;5180;50.832;5.390;2022-11-04T01:42:44;8.35;;;6.55;;
10269;SDS011;5180;50.832;5.390;2022-11-04T01:45:13;10.90;;;5.15;;
10269;SDS011;5180;50.832;5.390;2022-11-04T01:47:42;9.30;;;6.38;;
10269;SDS011;5180;50.832;5.390;2022-11-04T01:50:13;16.15;;;6.90;;
10269;SDS011;5180;50.832;5.390;2022-11-04T01:53:06;7.97;;;7.25;;
10269;SDS011;5180;50.832;5.390;2022-11-04T01:55:39;8.65;;;7.18;;
10269;SDS011;5180;50.832;5.390;2022-11-04T01:58:13;9.10;;;5.47;;
10269;SDS011;5180;50.832;5.390;2022-11-04T02:00:41;10.10;;;5.53;;
10269;SDS011;5180;50.832;5.390;2022-11-04T02:03:15;11.48;;;5.45;;
10269;SDS011;5180;50.832;5.390;2022-11-04T02:05:44;12.75;;;7.15;;
10269;SDS011;5180;50.832;5.390;2022-11-04T02:08:11;10.07;;;7.30;;
10269;SDS011;5180;50.832;5.390;2022-11-04T02:10:39;7.57;;;6.05;;
10269;SDS011;5180;50.832;5.390;2022-11-04T02:13:07;8.02;;;5.93;;
10269;SDS011;5180;50.832;5.390;2022-11-04T02:32:51;6.90;;;5.03;;
10269;SDS011;5180;50.832;5.390;2022-11-04T02:35:30;6.35;;;5.75;;
10269;SDS011;5180;50.832;5.390;2022-11-04T02:38:28;10.85;;;6.05;;
10269;SDS011;5180;50.832;5.390;2022-11-04T02:41:16;8.18;;;7.38;;
10269;SDS011;5180;50.832;5.390;2022-11-04T02:46:48;11.20;;;6.68;;
10269;SDS011;5180;50.832;5.390;2022-11-04T02:52:11;13.70;;;6.63;;
10269;SDS011;5180;50.832;5.390;2022-11-04T02:54:43;10.45;;;5.65;;
10269;SDS011;5180;50.832;5.390;2022-11-04T02:57:12;13.98;;;7.50;;
10269;SDS011;5180;50.832;5.390;2022-11-04T02:59:46;14.23;;;9.27;;
10269;SDS011;5180;50.832;5.390;2022-11-04T03:02:25;13.85;;;10.25;;
10269;SDS011;5180;50.832;5.390;2022-11-04T03:04:57;12.70;;;7.50;;
10269;SDS011;5180;50.832;5.390;2022-11-04T03:07:28;15.35;;;6.82;;
10269;SDS011;5180;50.832;5.390;2022-11-04T03:09:59;7.93;;;5.53;;
10269;SDS011;5180;50.832;5.390;2022-11-04T03:12:31;12.52;;;6.05;;
10269;SDS011;5180;50.832;5.390;2022-11-04T03:15:03;14.07;;;6.43;;
10269;SDS011;5180;50.832;5.390;2022-11-04T03:20:27;9.48;;;5.32;;
10269;SDS011;5180;50.832;5.390;2022-11-04T03:22:55;8.88;;;4.85;;
10269;SDS011;5180;50.832;5.390;2022-11-04T03:25:31;7.72;;;5.18;;
10269;SDS011;5180;50.832;5.390;2022-11-04T03:28:16;8.23;;;4.60;;
10269;SDS011;5180;50.832;5.390;2022-11-04T03:30:44;9.10;;;4.50;;
10269;SDS011;5180;50.832;5.390;2022-11-04T03:33:19;9.07;;;4.57;;
10269;SDS011;5180;50.832;5.390;2022-11-04T03:35:51;7.10;;;5.00;;
10269;SDS011;5180;50.832;5.390;2022-11-04T03:38:17;9.48;;;6.40;;
10269;SDS011;5180;50.832;5.390;2022-11-04T03:40:42;10.75;;;7.28;;
10269;SDS011;5180;50.832;5.390;2022-11-04T03:43:09;7.28;;;5.13;;
10269;SDS011;5180;50.832;5.390;2022-11-04T03:45:38;12.68;;;5.63;;
10269;SDS011;5180;50.832;5.390;2022-11-04T03:48:06;8.68;;;4.40;;
10269;SDS011;5180;50.832;5.390;2022-11-04T03:50:32;10.57;;;4.55;;
10269;SDS011;5180;50.832;5.390;2022-11-04T03:53:04;12.93;;;5.38;;
10269;SDS011;5180;50.832;5.390;2022-11-04T03:55:36;9.15;;;6.25;;
10269;SDS011;5180;50.832;5.390;2022-11-04T03:58:14;19.50;;;7.47;;
10269;SDS011;5180;50.832;5.390;2022-11-04T04:00:54;10.27;;;9.40;;
10269;SDS011;5180;50.832;5.390;2022-11-04T04:03:39;12.27;;;9.45;;
10269;SDS011;5180;50.832;5.390;2022-11-04T04:06:16;9.38;;;5.60;;
10269;SDS011;5180;50.832;5.390;2022-11-04T04:08:59;13.38;;;7.93;;
10269;SDS011;5180;50.832;5.390;2022-11-04T04:12:01;10.10;;;7.88;;
10269;SDS011;5180;50.832;5.390;2022-11-04T04:14:34;14.63;;;10.07;;
10269;SDS011;5180;50.832;5.390;2022-11-04T04:17:26;8.90;;;7.95;;
10269;SDS011;5180;50.832;5.390;2022-11-04T04:20:05;7.97;;;7.22;;
10269;SDS011;5180;50.832;5.390;2022-11-04T04:22:44;9.38;;;8.63;;
10269;SDS011;5180;50.832;5.390;2022-11-04T04:25:18;10.75;;;9.50;;
10269;SDS011;5180;50.832;5.390;2022-11-04T04:28:04;11.60;;;8.32;;
10269;SDS011;5180;50.832;5.390;2022-11-04T04:30:31;16.05;;;8.75;;
10269;SDS011;5180;50.832;5.390;2022-11-04T04:33:15;7.95;;;4.38;;
10269;SDS011;5180;50.832;5.390;2022-11-04T04:35:47;9.00;;;3.40;;
10269;SDS011;5180;50.832;5.390;2022-11-04T04:38:23;8.48;;;3.80;;
10269;SDS011;5180;50.832;5.390;2022-11-04T04:41:13;6.13;;;3.90;;
10269;SDS011;5180;50.832;5.390;2022-11-04T04:44:25;8.38;;;3.83;;
10269;SDS011;5180;50.832;5.390;2022-11-04T04:47:12;6.35;;;4.95;;
10269;SDS011;5180;50.832;5.390;2022-11-04T04:49:50;9.27;;;4.40;;
10269;SDS011;5180;50.832;5.390;2022-11-04T04:52:21;7.75;;;4.38;;
10269;SDS011;5180;50.832;5.390;2022-11-04T04:54:49;9.10;;;6.65;;
10269;SDS011;5180;50.832;5.390;2022-11-04T04:57:15;13.55;;;8.70;;
10269;SDS011;5180;50.832;5.390;2022-11-04T04:59:40;8.32;;;5.97;;
10269;SDS011;5180;50.832;5.390;2022-11-04T05:02:06;8.95;;;5.57;;
10269;SDS011;5180;50.832;5.390;2022-11-04T05:04:32;10.18;;;5.20;;
10269;SDS011;5180;50.832;5.390;2022-11-04T05:06:57;10.98;;;4.13;;
10269;SDS011;5180;50.832;5.390;2022-11-04T05:09:23;7.28;;;3.42;;
10269;SDS011;5180;50.832;5.390;2022-11-04T05:11:48;7.97;;;3.38;;
10269;SDS011;5180;50.832;5.390;2022-11-04T05:14:14;8.85;;;3.47;;
10269;SDS011;5180;50.832;5.390;2022-11-04T05:16:39;12.35;;;4.00;;
10269;SDS011;5180;50.832;5.390;2022-11-04T05:19:05;9.15;;;3.45;;
10269;SDS011;5180;50.832;5.390;2022-11-04T05:21:31;5.32;;;3.60;;
10269;SDS011;5180;50.832;5.390;2022-11-04T05:23:56;12.88;;;3.83;;
10269;SDS011;5180;50.832;5.390;2022-11-04T05:26:22;9.13;;;4.43;;
10269;SDS011;5180;50.832;5.390;2022-11-04T05:28:47;9.10;;;4.43;;
10269;SDS011;5180;50.832;5.390;2022-11-04T05:31:13;9.48;;;4.22;;
10269;SDS011;5180;50.832;5.390;2022-11-04T05:33:39;7.80;;;4.72;;
10269;SDS011;5180;50.832;5.390;2022-11-04T05:36:05;9.98;;;4.45;;
10269;SDS011;5180;50.832;5.390;2022-11-04T05:38:38;8.00;;;4.55;;
10269;SDS011;5180;50.832;5.390;2022-11-04T05:41:04;7.13;;;4.97;;
10269;SDS011;5180;50.832;5.390;2022-11-04T05:43:32;13.18;;;5.63;;
10269;SDS011;5180;50.832;5.390;2022-11-04T05:45:59;9.27;;;4.65;;
10269;SDS011;5180;50.832;5.390;2022-11-04T05:48:25;12.45;;;4.57;;
10269;SDS011;5180;50.832;5.390;2022-11-04T05:50:51;10.57;;;4.57;;
10269;SDS011;5180;50.832;5.390;2022-11-04T05:53:17;11.82;;;5.18;;
10269;SDS011;5180;50.832;5.390;2022-11-04T05:55:42;7.68;;;5.20;;
10269;SDS011;5180;50.832;5.390;2022-11-04T05:58:08;9.15;;;6.90;;
10269;SDS011;5180;50.832;5.390;2022-11-04T06:00:34;8.90;;;5.93;;
10269;SDS011;5180;50.832;5.390;2022-11-04T06:02:59;10.80;;;4.85;;
10269;SDS011;5180;50.832;5.390;2022-11-04T06:05:25;7.05;;;4.88;;
10269;SDS011;5180;50.832;5.390;2022-11-04T06:07:52;8.25;;;5.53;;
10269;SDS011;5180;50.832;5.390;2022-11-04T06:10:18;8.32;;;5.15;;
10269;SDS011;5180;50.832;5.390;2022-11-04T06:12:44;13.15;;;5.90;;
10269;SDS011;5180;50.832;5.390;2022-11-04T06:15:09;9.07;;;5.22;;
10269;SDS011;5180;50.832;5.390;2022-11-04T06:17:35;10.27;;;5.25;;
10269;SDS011;5180;50.832;5.390;2022-11-04T06:20:01;9.32;;;5.07;;
10269;SDS011;5180;50.832;5.390;2022-11-04T06:22:28;11.00;;;4.57;;
10269;SDS011;5180;50.832;5.390;2022-11-04T06:24:53;6.45;;;3.55;;
10269;SDS011;5180;50.832;5.390;2022-11-04T06:27:19;9.38;;;4.40;;
10269;SDS011;5180;50.832;5.390;2022-11-04T06:29:45;14.75;;;5.13;;
10269;SDS011;5180;50.832;5.390;2022-11-04T06:32:13;6.93;;;5.18;;
10269;SDS011;5180;50.832;5.390;2022-11-04T06:34:39;12.10;;;5.82;;
10269;SDS011;5180;50.832;5.390;2022-11-04T06:37:05;7.65;;;6.85;;
10269;SDS011;5180;50.832;5.390;2022-11-04T06:39:31;8.32;;;6.60;;
10269;SDS011;5180;50.832;5.390;2022-11-04T06:41:57;11.90;;;7.15;;
10269;SDS011;5180;50.832;5.390;2022-11-04T06:44:23;9.90;;;6.28;;
10269;SDS011;5180;50.832;5.390;2022-11-04T06:46:48;8.55;;;6.55;;
10269;SDS011;5180;50.832;5.390;2022-11-04T06:49:15;15.23;;;5.90;;
10269;SDS011;5180;50.832;5.390;2022-11-04T06:51:44;9.23;;;5.70;;
10269;SDS011;5180;50.832;5.390;2022-11-04T06:54:10;9.50;;;5.38;;
10269;SDS011;5180;50.832;5.390;2022-11-04T06:56:36;10.25;;;6.10;;
10269;SDS011;5180;50.832;5.390;2022-11-04T06:59:01;12.25;;;6.43;;
10269;SDS011;5180;50.832;5.390;2022-11-04T07:01:29;11.05;;;6.15;;
10269;SDS011;5180;50.832;5.390;2022-11-04T07:03:58;7.60;;;6.38;;
10269;SDS011;5180;50.832;5.390;2022-11-04T07:06:24;10.45;;;6.60;;
10269;SDS011;5180;50.832;5.390;2022-11-04T07:08:51;10.27;;;6.72;;
10269;SDS011;5180;50.832;5.390;2022-11-04T07:11:18;10.45;;;7.03;;
10269;SDS011;5180;50.832;5.390;2022-11-04T07:13:46;10.88;;;6.40;;
10269;SDS011;5180;50.832;5.390;2022-11-04T07:16:13;8.90;;;8.07;;
10269;SDS011;5180;50.832;5.390;2022-11-04T07:18:40;12.73;;;9.98;;
10269;SDS011;5180;50.832;5.390;2022-11-04T07:21:06;13.52;;;11.52;;
10269;SDS011;5180;50.832;5.390;2022-11-04T07:23:32;12.80;;;11.50;;
10269;SDS011;5180;50.832;5.390;2022-11-04T07:26:01;15.57;;;10.05;;
10269;SDS011;5180;50.832;5.390;2022-11-04T07:28:28;17.73;;;9.93;;
10269;SDS011;5180;50.832;5.390;2022-11-04T07:30:58;9.85;;;8.10;;
10269;SDS011;5180;50.832;5.390;2022-11-04T07:33:25;17.65;;;11.65;;
10269;SDS011;5180;50.832;5.390;2022-11-04T07:35:51;13.75;;;11.25;;
10269;SDS011;5180;50.832;5.390;2022-11-04T07:38:18;13.90;;;11.80;;
10269;SDS011;5180;50.832;5.390;2022-11-04T07:40:45;15.35;;;12.73;;
10269;SDS011;5180;50.832;5.390;2022-11-04T07:43:11;13.82;;;10.45;;
10269;SDS011;5180;50.832;5.390;2022-11-04T07:45:36;12.68;;;9.32;;
10269;SDS011;5180;50.832;5.390;2022-11-04T07:48:02;12.70;;;10.75;;
10269;SDS011;5180;50.832;5.390;2022-11-04T07:50:28;15.75;;;13.40;;
10269;SDS011;5180;50.832;5.390;2022-11-04T07:52:54;13.43;;;12.38;;
10269;SDS011;5180;50.832;5.390;2022-11-04T07:55:19;15.13;;;13.68;;
10269;SDS011;5180;50.832;5.390;2022-11-04T07:57:45;18.38;;;14.15;;
10269;SDS011;5180;50.832;5.390;2022-11-04T08:00:12;14.23;;;12.43;;
10269;SDS011;5180;50.832;5.390;2022-11-04T08:02:39;11.02;;;8.85;;
10269;SDS011;5180;50.832;5.390;2022-11-04T08:05:06;11.32;;;7.57;;
10269;SDS011;5180;50.832;5.390;2022-11-04T08:07:32;13.15;;;7.93;;
10269;SDS011;5180;50.832;5.390;2022-11-04T08:09:58;11.43;;;10.18;;
10269;SDS011;5180;50.832;5.390;2022-11-04T08:12:23;12.45;;;11.25;;
10269;SDS011;5180;50.832;5.390;2022-11-04T08:14:49;7.95;;;6.22;;
10269;SDS011;5180;50.832;5.390;2022-11-04T08:17:15;9.82;;;8.88;;
10269;SDS011;5180;50.832;5.390;2022-11-04T08:19:41;14.73;;;13.45;;
10269;SDS011;5180;50.832;5.390;2022-11-04T08:22:07;10.15;;;8.82;;
10269;SDS011;5180;50.832;5.390;2022-11-04T08:24:33;12.40;;;11.20;;
10269;SDS011;5180;50.832;5.390;2022-11-04T08:26:59;7.47;;;5.20;;
10269;SDS011;5180;50.832;5.390;2022-11-04T08:29:25;7.72;;;4.18;;
10269;SDS011;5180;50.832;5.390;2022-11-04T08:31:50;10.55;;;4.63;;
10269;SDS011;5180;50.832;5.390;2022-11-04T08:34:16;14.80;;;4.85;;
10269;SDS011;5180;50.832;5.390;2022-11-04T08:36:42;8.98;;;5.05;;
10269;SDS011;5180;50.832;5.390;2022-11-04T08:39:09;8.95;;;5.10;;
10269;SDS011;5180;50.832;5.390;2022-11-04T08:41:36;13.00;;;5.35;;
10269;SDS011;5180;50.832;5.390;2022-11-04T08:44:05;9.85;;;5.15;;
10269;SDS011;5180;50.832;5.390;2022-11-04T08:46:34;9.38;;;5.00;;
10269;SDS011;5180;50.832;5.390;2022-11-04T08:49:02;9.88;;;4.65;;
10269;SDS011;5180;50.832;5.390;2022-11-04T08:51:29;10.15;;;6.70;;
10269;SDS011;5180;50.832;5.390;2022-11-04T08:53:56;12.18;;;10.27;;
10269;SDS011;5180;50.832;5.390;2022-11-04T08:56:30;10.93;;;8.60;;
10269;SDS011;5180;50.832;5.390;2022-11-04T08:58:57;11.50;;;6.85;;
10269;SDS011;5180;50.832;5.390;2022-11-04T09:01:24;9.23;;;4.70;;
10269;SDS011;5180;50.832;5.390;2022-11-04T09:03:51;8.38;;;4.30;;
10269;SDS011;5180;50.832;5.390;2022-11-04T09:06:36;10.55;;;4.40;;
10269;SDS011;5180;50.832;5.390;2022-11-04T09:09:04;10.65;;;4.40;;
10269;SDS011;5180;50.832;5.390;2022-11-04T09:11:32;10.23;;;5.25;;
10269;SDS011;5180;50.832;5.390;2022-11-04T09:14:00;8.02;;;5.93;;
10269;SDS011;5180;50.832;5.390;2022-11-04T09:16:28;8.95;;;5.45;;
10269;SDS011;5180;50.832;5.390;2022-11-04T09:18:56;11.10;;;5.43;;
10269;SDS011;5180;50.832;5.390;2022-11-04T09:21:22;11.75;;;7.30;;
10269;SDS011;5180;50.832;5.390;2022-11-04T09:23:49;9.05;;;6.93;;
10269;SDS011;5180;50.832;5.390;2022-11-04T09:26:15;12.93;;;6.60;;
10269;SDS011;5180;50.832;5.390;2022-11-04T09:28:41;12.60;;;7.22;;
10269;SDS011;5180;50.832;5.390;2022-11-04T09:31:08;12.57;;;5.43;;
10269;SDS011;5180;50.832;5.390;2022-11-04T09:33:37;12.32;;;5.90;;
10269;SDS011;5180;50.832;5.390;2022-11-04T09:36:02;11.00;;;5.97;;
10269;SDS011;5180;50.832;5.390;2022-11-04T09:38:28;9.32;;;6.10;;
10269;SDS011;5180;50.832;5.390;2022-11-04T09:40:54;7.40;;;5.53;;
10269;SDS011;5180;50.832;5.390;2022-11-04T09:43:26;9.93;;;8.48;;
10269;SDS011;5180;50.832;5.390;2022-11-04T09:46:04;12.70;;;10.23;;
10269;SDS011;5180;50.832;5.390;2022-11-04T09:50:59;12.50;;;11.18;;
10269;SDS011;5180;50.832;5.390;2022-11-04T09:55:54;12.10;;;10.55;;
10269;SDS011;5180;50.832;5.390;2022-11-04T09:58:23;8.57;;;7.18;;
10269;SDS011;5180;50.832;5.390;2022-11-04T10:01:01;11.38;;;6.97;;
10269;SDS011;5180;50.832;5.390;2022-11-04T10:07:08;9.73;;;5.88;;
10269;SDS011;5180;50.832;5.390;2022-11-04T10:09:51;11.85;;;10.63;;
10269;SDS011;5180;50.832;5.390;2022-11-04T10:23:01;8.35;;;4.45;;
10269;SDS011;5180;50.832;5.390;2022-11-04T10:25:44;6.47;;;3.63;;
10269;SDS011;5180;50.832;5.390;2022-11-04T10:28:21;5.03;;;3.47;;
10269;SDS011;5180;50.832;5.390;2022-11-04T10:30:53;11.18;;;2.92;;
10269;SDS011;5180;50.832;5.390;2022-11-04T10:38:18;7.93;;;2.47;;
10269;SDS011;5180;50.832;5.390;2022-11-04T10:40:49;5.30;;;3.00;;
10269;SDS011;5180;50.832;5.390;2022-11-04T10:43:20;5.40;;;3.75;;
10269;SDS011;5180;50.832;5.390;2022-11-04T10:46:10;8.57;;;3.45;;
10269;SDS011;5180;50.832;5.390;2022-11-04T10:48:59;5.90;;;2.83;;
10269;SDS011;5180;50.832;5.390;2022-11-04T10:51:44;5.22;;;2.20;;
10269;SDS011;5180;50.832;5.390;2022-11-04T10:54:10;5.65;;;2.50;;
10269;SDS011;5180;50.832;5.390;2022-11-04T10:56:40;5.22;;;2.13;;
10269;SDS011;5180;50.832;5.390;2022-11-04T11:02:02;5.63;;;2.22;;
10269;SDS011;5180;50.832;5.390;2022-11-04T11:06:59;6.82;;;2.25;;
10269;SDS011;5180;50.832;5.390;2022-11-04T11:09:27;5.70;;;2.40;;
10269;SDS011;5180;50.832;5.390;2022-11-04T11:11:57;7.10;;;2.05;;
10269;SDS011;5180;50.832;5.390;2022-11-04T11:17:42;6.97;;;2.17;;
10269;SDS011;5180;50.832;5.390;2022-11-04T11:22:26;3.95;;;2.22;;
10269;SDS011;5180;50.832;5.390;2022-11-04T11:30:31;4.45;;;2.28;;
10269;SDS011;5180;50.832;5.390;2022-11-04T11:33:04;5.47;;;2.30;;
10269;SDS011;5180;50.832;5.390;2022-11-04T11:35:50;6.72;;;2.80;;
10269;SDS011;5180;50.832;5.390;2022-11-04T11:40:53;7.90;;;3.83;;
10269;SDS011;5180;50.832;5.390;2022-11-04T11:43:35;5.90;;;2.80;;
10269;SDS011;5180;50.832;5.390;2022-11-04T11:46:05;5.97;;;3.17;;
10269;SDS011;5180;50.832;5.390;2022-11-04T11:48:32;5.90;;;4.10;;
10269;SDS011;5180;50.832;5.390;2022-11-04T11:51:02;5.03;;;2.80;;
10269;SDS011;5180;50.832;5.390;2022-11-04T11:53:29;5.10;;;4.65;;
10269;SDS011;5180;50.832;5.390;2022-11-04T11:56:01;4.78;;;4.30;;
10269;SDS011;5180;50.832;5.390;2022-11-04T11:58:39;5.18;;;4.75;;
10269;SDS011;5180;50.832;5.390;2022-11-04T12:03:46;4.85;;;2.28;;
10269;SDS011;5180;50.832;5.390;2022-11-04T12:17:13;6.43;;;3.00;;
10269;SDS011;5180;50.832;5.390;2022-11-04T12:20:06;5.97;;;3.00;;
10269;SDS011;5180;50.832;5.390;2022-11-04T12:23:08;5.90;;;2.38;;
10269;SDS011;5180;50.832;5.390;2022-11-04T12:36:24;6.88;;;4.65;;
10269;SDS011;5180;50.832;5.390;2022-11-04T12:42:11;9.73;;;4.00;;
10269;SDS011;5180;50.832;5.390;2022-11-04T12:44:39;5.95;;;2.70;;
10269;SDS011;5180;50.832;5.390;2022-11-04T12:50:01;5.97;;;2.83;;
10269;SDS011;5180;50.832;5.390;2022-11-04T13:01:46;6.95;;;3.55;;
10269;SDS011;5180;50.832;5.390;2022-11-04T13:04:19;6.68;;;3.72;;
10269;SDS011;5180;50.832;5.390;2022-11-04T13:09:14;6.35;;;3.90;;
10269;SDS011;5180;50.832;5.390;2022-11-04T13:11:49;6.78;;;3.50;;
10269;SDS011;5180;50.832;5.390;2022-11-04T13:14:22;6.07;;;3.55;;
10269;SDS011;5180;50.832;5.390;2022-11-04T13:16:58;7.07;;;3.45;;
10269;SDS011;5180;50.832;5.390;2022-11-04T13:22:04;4.30;;;3.20;;
10269;SDS011;5180;50.832;5.390;2022-11-04T13:24:33;6.35;;;3.40;;
10269;SDS011;5180;50.832;5.390;2022-11-04T13:27:04;6.50;;;3.30;;
10269;SDS011;5180;50.832;5.390;2022-11-04T13:29:40;7.07;;;3.45;;
10269;SDS011;5180;50.832;5.390;2022-11-04T13:32:07;11.07;;;4.15;;
10269;SDS011;5180;50.832;5.390;2022-11-04T13:34:46;4.50;;;3.65;;
10269;SDS011;5180;50.832;5.390;2022-11-04T13:37:34;7.00;;;3.78;;
10269;SDS011;5180;50.832;5.390;2022-11-04T13:40:17;6.72;;;3.88;;
10269;SDS011;5180;50.832;5.390;2022-11-04T13:45:54;8.18;;;4.47;;
10269;SDS011;5180;50.832;5.390;2022-11-04T13:48:24;8.77;;;5.50;;
10269;SDS011;5180;50.832;5.390;2022-11-04T13:50:59;7.45;;;5.25;;
10269;SDS011;5180;50.832;5.390;2022-11-04T13:56:09;9.80;;;4.97;;
10269;SDS011;5180;50.832;5.390;2022-11-04T14:01:47;13.07;;;7.63;;
10269;SDS011;5180;50.832;5.390;2022-11-04T14:06:50;10.77;;;7.82;;
10269;SDS011;5180;50.832;5.390;2022-11-04T14:14:45;12.93;;;8.68;;
10269;SDS011;5180;50.832;5.390;2022-11-04T14:19:59;13.55;;;9.90;;
10269;SDS011;5180;50.832;5.390;2022-11-04T14:23:00;17.20;;;10.30;;
10269;SDS011;5180;50.832;5.390;2022-11-04T14:25:34;15.27;;;11.27;;
10269;SDS011;5180;50.832;5.390;2022-11-04T14:30:41;16.15;;;11.23;;
10269;SDS011;5180;50.832;5.390;2022-11-04T14:38:44;15.30;;;12.52;;
10269;SDS011;5180;50.832;5.390;2022-11-04T14:43:53;19.00;;;13.30;;
10269;SDS011;5180;50.832;5.390;2022-11-04T14:46:23;21.05;;;12.75;;
10269;SDS011;5180;50.832;5.390;2022-11-04T14:48:53;16.42;;;13.23;;
10269;SDS011;5180;50.832;5.390;2022-11-04T14:51:25;19.90;;;13.77;;
10269;SDS011;5180;50.832;5.390;2022-11-04T14:56:45;12.82;;;11.50;;
10269;SDS011;5180;50.832;5.390;2022-11-04T14:59:19;17.48;;;12.15;;
10269;SDS011;5180;50.832;5.390;2022-11-04T15:01:46;18.48;;;11.48;;
10269;SDS011;5180;50.832;5.390;2022-11-04T15:04:23;18.15;;;11.93;;
10269;SDS011;5180;50.832;5.390;2022-11-04T15:06:54;16.55;;;13.13;;
10269;SDS011;5180;50.832;5.390;2022-11-04T15:09:26;17.92;;;13.52;;
10269;SDS011;5180;50.832;5.390;2022-11-04T15:17:51;17.00;;;12.35;;
10269;SDS011;5180;50.832;5.390;2022-11-04T15:20:48;19.00;;;13.57;;
10269;SDS011;5180;50.832;5.390;2022-11-04T15:23:38;17.58;;;13.20;;
10269;SDS011;5180;50.832;5.390;2022-11-04T15:26:13;19.88;;;12.95;;
10269;SDS011;5180;50.832;5.390;2022-11-04T15:28:47;18.88;;;12.80;;
10269;SDS011;5180;50.832;5.390;2022-11-04T15:31:16;22.63;;;12.98;;
10269;SDS011;5180;50.832;5.390;2022-11-04T15:33:45;13.77;;;9.90;;
10269;SDS011;5180;50.832;5.390;2022-11-04T15:36:20;13.65;;;10.07;;
10269;SDS011;5180;50.832;5.390;2022-11-04T15:38:58;16.27;;;11.57;;
10269;SDS011;5180;50.832;5.390;2022-11-04T15:41:39;14.63;;;12.07;;
10269;SDS011;5180;50.832;5.390;2022-11-04T15:44:29;18.85;;;14.57;;
10269;SDS011;5180;50.832;5.390;2022-11-04T15:46:57;17.00;;;11.13;;
10269;SDS011;5180;50.832;5.390;2022-11-04T15:49:47;16.02;;;10.48;;
10269;SDS011;5180;50.832;5.390;2022-11-04T15:54:53;15.45;;;12.82;;
10269;SDS011;5180;50.832;5.390;2022-11-04T15:57:26;17.30;;;11.88;;
10269;SDS011;5180;50.832;5.390;2022-11-04T16:02:28;22.40;;;20.08;;
10269;SDS011;5180;50.832;5.390;2022-11-04T16:05:03;29.33;;;26.45;;
10269;SDS011;5180;50.832;5.390;2022-11-04T16:07:29;28.10;;;22.35;;
10269;SDS011;5180;50.832;5.390;2022-11-04T16:10:00;25.38;;;16.65;;
10269;SDS011;5180;50.832;5.390;2022-11-04T16:12:33;29.17;;;16.83;;
10269;SDS011;5180;50.832;5.390;2022-11-04T16:15:00;23.10;;;16.30;;
10269;SDS011;5180;50.832;5.390;2022-11-04T16:17:26;25.65;;;17.30;;
10269;SDS011;5180;50.832;5.390;2022-11-04T16:20:03;23.92;;;15.20;;
10269;SDS011;5180;50.832;5.390;2022-11-04T16:22:32;29.20;;;18.02;;
10269;SDS011;5180;50.832;5.390;2022-11-04T16:25:01;27.98;;;21.42;;
10269;SDS011;5180;50.832;5.390;2022-11-04T16:27:29;28.75;;;20.92;;
10269;SDS011;5180;50.832;5.390;2022-11-04T16:30:01;30.58;;;20.58;;
10269;SDS011;5180;50.832;5.390;2022-11-04T16:32:41;30.05;;;16.35;;
10269;SDS011;5180;50.832;5.390;2022-11-04T16:35:13;27.48;;;16.05;;
10269;SDS011;5180;50.832;5.390;2022-11-04T16:37:48;29.33;;;16.83;;
10269;SDS011;5180;50.832;5.390;2022-11-04T16:40:15;24.08;;;15.10;;
10269;SDS011;5180;50.832;5.390;2022-11-04T16:42:41;23.95;;;15.10;;
10269;SDS011;5180;50.832;5.390;2022-11-04T16:45:09;28.75;;;16.35;;
10269;SDS011;5180;50.832;5.390;2022-11-04T16:47:44;25.75;;;15.40;;
10269;SDS011;5180;50.832;5.390;2022-11-04T16:50:13;31.00;;;16.92;;
10269;SDS011;5180;50.832;5.390;2022-11-04T16:52:40;26.45;;;18.23;;
10269;SDS011;5180;50.832;5.390;2022-11-04T16:55:06;30.17;;;20.67;;
10269;SDS011;5180;50.832;5.390;2022-11-04T16:57:32;33.67;;;23.98;;
10269;SDS011;5180;50.832;5.390;2022-11-04T16:59:58;34.00;;;24.65;;
10269;SDS011;5180;50.832;5.390;2022-11-04T17:02:30;30.20;;;24.30;;
10269;SDS011;5180;50.832;5.390;2022-11-04T17:05:01;31.35;;;20.92;;
10269;SDS011;5180;50.832;5.390;2022-11-04T17:07:28;32.03;;;19.92;;
10269;SDS011;5180;50.832;5.390;2022-11-04T17:09:54;25.05;;;17.85;;
10269;SDS011;5180;50.832;5.390;2022-11-04T17:12:20;25.65;;;17.35;;
10269;SDS011;5180;50.832;5.390;2022-11-04T17:14:45;24.70;;;16.95;;
10269;SDS011;5180;50.832;5.390;2022-11-04T17:17:11;29.52;;;16.35;;
10269;SDS011;5180;50.832;5.390;2022-11-04T17:19:37;30.67;;;17.85;;
10269;SDS011;5180;50.832;5.390;2022-11-04T17:22:03;28.30;;;19.23;;
10269;SDS011;5180;50.832;5.390;2022-11-04T17:24:30;28.13;;;20.60;;
10269;SDS011;5180;50.832;5.390;2022-11-04T17:26:56;20.58;;;17.98;;
10269;SDS011;5180;50.832;5.390;2022-11-04T17:29:22;20.27;;;16.50;;
10269;SDS011;5180;50.832;5.390;2022-11-04T17:31:48;19.67;;;15.15;;
10269;SDS011;5180;50.832;5.390;2022-11-04T17:34:14;22.45;;;15.02;;
10269;SDS011;5180;50.832;5.390;2022-11-04T17:36:40;19.15;;;15.00;;
10269;SDS011;5180;50.832;5.390;2022-11-04T17:39:05;18.27;;;15.07;;
10269;SDS011;5180;50.832;5.390;2022-11-04T17:41:31;18.52;;;15.52;;
10269;SDS011;5180;50.832;5.390;2022-11-04T17:44:15;18.50;;;14.85;;
10269;SDS011;5180;50.832;5.390;2022-11-04T17:46:41;21.17;;;14.70;;
10269;SDS011;5180;50.832;5.390;2022-11-04T17:49:13;22.83;;;14.25;;
10269;SDS011;5180;50.832;5.390;2022-11-04T17:51:42;21.52;;;14.43;;